Time;durP1;ratioP1;P1;durP2;ratioP2;P2;SDS_P1;SDS_P2;PMS_P1;PMS_P2;Temp;Humidity;BMP_temperature;BMP_pressure;BME280_temperature;BME280_humidity;BME280_pressure;Samples;Min_cycle;Max_cycle;Signal;HPM_P1;HPM_P2
2023/09/15 00:00:42;;;;;;;9.77;3.72;;;11.20;75.60;;;;;;4988932;28;20039;-65
2023/09/15 00:03:08;;;;;;;7.28;3.45;;;11.20;75.70;;;;;;4991976;28;20046;-64
2023/09/15 00:05:34;;;;;;;13.13;3.80;;;11.10;75.70;;;;;;4988969;28;20042;-66
2023/09/15 00:08:04;;;;;;;10.73;3.47;;;11.10;75.80;;;;;;4979002;28;20072;-65
2023/09/15 00:10:31;;;;;;;8.45;3.40;;;11.10;75.80;;;;;;4996515;28;20034;-65
2023/09/15 00:12:58;;;;;;;10.77;3.60;;;11.10;75.90;;;;;;4981366;28;20109;-65
2023/09/15 00:15:24;;;;;;;7.20;3.28;;;11.10;75.90;;;;;;4989518;28;20044;-66
2023/09/15 00:17:50;;;;;;;6.00;3.00;;;11.10;75.90;;;;;;4977129;28;20042;-66
2023/09/15 00:20:16;;;;;;;11.60;3.00;;;11.10;75.90;;;;;;4990004;28;20489;-65
2023/09/15 00:22:48;;;;;;;6.78;3.03;;;11.10;75.70;;;;;;4988494;28;20077;-65
2023/09/15 00:25:18;;;;;;;8.90;3.35;;;11.10;75.70;;;;;;4992555;28;20034;-65
2023/09/15 00:27:48;;;;;;;7.63;3.17;;;11.00;75.70;;;;;;4984280;28;20038;-65
2023/09/15 00:30:16;;;;;;;10.65;3.42;;;11.00;75.90;;;;;;4994411;28;20078;-65
2023/09/15 00:32:42;;;;;;;7.05;3.25;;;11.00;75.80;;;;;;4989304;28;20045;-65
2023/09/15 00:35:08;;;;;;;9.63;3.30;;;11.00;75.80;;;;;;4990316;28;20259;-64
2023/09/15 00:37:33;;;;;;;9.82;3.10;;;11.00;75.80;;;;;;4978932;28;20038;-63
2023/09/15 00:39:59;;;;;;;9.27;3.47;;;10.90;75.90;;;;;;4993052;28;20540;-63
2023/09/15 00:42:25;;;;;;;9.40;3.78;;;10.90;76.10;;;;;;4989956;28;20110;-65
2023/09/15 00:44:51;;;;;;;9.23;3.40;;;10.90;76.10;;;;;;4990464;28;20129;-65
2023/09/15 00:47:18;;;;;;;11.70;3.22;;;10.90;76.20;;;;;;4981687;28;20125;-65
2023/09/15 00:49:45;;;;;;;8.45;3.13;;;10.90;76.10;;;;;;4990264;28;20038;-65
2023/09/15 00:52:11;;;;;;;8.50;3.00;;;10.90;76.10;;;;;;4989009;28;20125;-65
2023/09/15 00:54:39;;;;;;;7.03;3.20;;;10.90;76.20;;;;;;4990284;28;20049;-65
2023/09/15 00:57:05;;;;;;;6.03;3.33;;;10.80;76.30;;;;;;4978287;28;20056;-64
2023/09/15 00:59:32;;;;;;;10.38;3.42;;;10.80;76.40;;;;;;5005757;28;20046;-65
2023/09/15 01:01:59;;;;;;;7.78;2.88;;;10.80;76.50;;;;;;4989265;28;20118;-65
2023/09/15 01:04:27;;;;;;;11.65;3.03;;;10.80;76.50;;;;;;4985521;28;20082;-66
2023/09/15 01:06:55;;;;;;;7.78;2.80;;;10.80;76.50;;;;;;4978807;28;20051;-65
2023/09/15 01:09:22;;;;;;;6.78;3.28;;;10.70;76.50;;;;;;4989542;28;20038;-65
2023/09/15 01:11:50;;;;;;;7.03;3.13;;;10.70;76.50;;;;;;4997352;28;20054;-65
2023/09/15 01:14:16;;;;;;;6.72;3.08;;;10.70;76.70;;;;;;4987561;28;20076;-64
2023/09/15 01:16:49;;;;;;;6.40;3.38;;;10.70;76.60;;;;;;4977044;28;20115;-64
2023/09/15 01:19:37;;;;;;;5.75;2.78;;;10.70;76.60;;;;;;4988608;28;20081;-65
2023/09/15 01:22:06;;;;;;;9.70;3.42;;;10.70;76.70;;;;;;4987354;28;20053;-64
2023/09/15 01:25:05;;;;;;;7.30;3.47;;;10.70;76.70;;;;;;4988976;28;20046;-64
2023/09/15 01:28:14;;;;;;;7.10;3.00;;;10.70;76.60;;;;;;4977318;28;20130;-65
2023/09/15 01:30:41;;;;;;;8.88;3.83;;;10.60;76.60;;;;;;4983167;28;20130;-64
2023/09/15 01:33:09;;;;;;;7.30;3.35;;;10.50;76.60;;;;;;4989012;28;20050;-64
2023/09/15 01:35:35;;;;;;;9.77;3.17;;;10.50;76.50;;;;;;4989375;28;20112;-64
2023/09/15 01:38:00;;;;;;;9.25;3.38;;;10.50;76.50;;;;;;4978570;28;20070;-65
2023/09/15 01:40:26;;;;;;;9.52;3.30;;;10.50;76.50;;;;;;4989813;28;20034;-65
2023/09/15 01:42:54;;;;;;;8.43;3.15;;;10.40;76.50;;;;;;4988600;28;20054;-65
2023/09/15 01:45:20;;;;;;;7.78;3.28;;;10.40;76.50;;;;;;4996310;28;20096;-66
2023/09/15 01:47:50;;;;;;;7.40;3.13;;;10.40;76.40;;;;;;4989620;28;20042;-65
2023/09/15 01:50:16;;;;;;;10.25;2.75;;;10.30;76.40;;;;;;4987799;28;20046;-66
2023/09/15 01:52:43;;;;;;;8.20;2.97;;;10.30;76.40;;;;;;4988269;28;20046;-66
2023/09/15 01:55:10;;;;;;;11.35;3.60;;;10.20;76.40;;;;;;4993487;28;20045;-65
2023/09/15 01:57:37;;;;;;;8.52;3.40;;;10.20;76.50;;;;;;4988814;28;20145;-65
2023/09/15 02:00:03;;;;;;;7.50;3.13;;;10.20;76.70;;;;;;4987659;28;20114;-62
2023/09/15 02:02:29;;;;;;;6.20;3.00;;;10.20;76.80;;;;;;4980272;28;20093;-63
2023/09/15 02:04:55;;;;;;;8.75;2.90;;;10.20;76.90;;;;;;4987896;28;20566;-64
2023/09/15 02:07:20;;;;;;;6.70;3.25;;;10.20;76.80;;;;;;4976091;28;20282;-64
2023/09/15 02:09:46;;;;;;;8.02;3.17;;;10.20;76.70;;;;;;4988247;28;20050;-65
2023/09/15 02:12:12;;;;;;;6.78;3.50;;;10.10;76.70;;;;;;4993187;28;20350;-65
2023/09/15 02:14:37;;;;;;;7.43;3.72;;;10.10;76.60;;;;;;4988507;28;20057;-64
2023/09/15 02:17:04;;;;;;;6.85;3.40;;;10.10;76.70;;;;;;4975403;28;20042;-63
2023/09/15 02:19:30;;;;;;;10.35;3.42;;;10.00;76.70;;;;;;4988573;28;20354;-65
2023/09/15 02:21:57;;;;;;;7.43;3.50;;;10.00;76.80;;;;;;4988055;28;20484;-65
2023/09/15 02:24:23;;;;;;;10.25;3.35;;;10.00;76.80;;;;;;4987923;28;20454;-65
2023/09/15 02:26:49;;;;;;;6.05;3.13;;;10.00;76.70;;;;;;4978971;28;20070;-64
2023/09/15 02:29:15;;;;;;;8.07;3.95;;;10.00;76.70;;;;;;4986798;28;20133;-64
2023/09/15 02:31:41;;;;;;;8.32;3.80;;;10.00;76.70;;;;;;4987784;28;20122;-64
2023/09/15 02:34:07;;;;;;;9.07;3.67;;;10.00;76.80;;;;;;4987676;28;20117;-63
2023/09/15 02:36:32;;;;;;;11.35;3.75;;;10.00;77.10;;;;;;4978014;28;20585;-65
2023/09/15 02:38:58;;;;;;;7.45;3.75;;;10.00;77.20;;;;;;4986984;28;20429;-65
2023/09/15 02:41:24;;;;;;;4.70;3.20;;;10.00;77.10;;;;;;4987952;28;20048;-64
2023/09/15 02:43:49;;;;;;;9.70;3.50;;;10.00;77.00;;;;;;4986760;28;20042;-65
2023/09/15 02:46:15;;;;;;;9.35;3.83;;;10.00;77.00;;;;;;4976202;28;20049;-65
2023/09/15 02:48:44;;;;;;;8.85;3.33;;;9.90;77.00;;;;;;4986529;28;20448;-65
2023/09/15 02:51:09;;;;;;;8.60;3.30;;;9.90;76.90;;;;;;4982915;28;20116;-65
2023/09/15 02:53:35;;;;;;;7.20;3.83;;;9.90;76.80;;;;;;4986366;28;20141;-66
2023/09/15 02:56:04;;;;;;;7.25;3.60;;;9.80;76.80;;;;;;4997425;28;20053;-64
2023/09/15 02:58:31;;;;;;;6.57;3.55;;;9.80;76.90;;;;;;4980219;28;20038;-64
2023/09/15 03:00:57;;;;;;;9.52;3.63;;;9.80;76.80;;;;;;4981154;28;20392;-64
2023/09/15 03:03:23;;;;;;;8.55;3.85;;;9.80;76.90;;;;;;4986706;28;20046;-65
2023/09/15 03:05:49;;;;;;;6.20;3.30;;;9.80;77.00;;;;;;4986242;28;20478;-65
2023/09/15 03:08:14;;;;;;;9.02;3.85;;;9.80;77.20;;;;;;4973817;28;20038;-65
2023/09/15 03:10:40;;;;;;;9.50;3.83;;;9.80;77.20;;;;;;4990501;28;20042;-64
2023/09/15 03:13:06;;;;;;;7.32;3.58;;;9.80;77.10;;;;;;4986146;28;20061;-64
2023/09/15 03:15:33;;;;;;;10.63;3.85;;;9.80;77.20;;;;;;4986864;28;20046;-63
2023/09/15 03:17:59;;;;;;;7.55;3.85;;;9.70;77.30;;;;;;4974840;28;20054;-64
2023/09/15 03:20:24;;;;;;;10.95;3.75;;;9.80;77.50;;;;;;5001021;28;20049;-64
2023/09/15 03:22:51;;;;;;;8.80;4.30;;;9.80;77.70;;;;;;4985547;28;20505;-65
2023/09/15 03:25:17;;;;;;;8.88;4.03;;;9.80;77.70;;;;;;4990831;28;20042;-63
2023/09/15 03:27:43;;;;;;;9.45;3.50;;;9.80;77.70;;;;;;4974768;28;20100;-65
2023/09/15 03:30:10;;;;;;;7.15;3.85;;;9.80;77.70;;;;;;4990273;28;20054;-65
2023/09/15 03:32:37;;;;;;;9.90;4.15;;;9.80;77.70;;;;;;4989360;28;20480;-64
2023/09/15 03:35:05;;;;;;;9.35;4.13;;;9.80;77.70;;;;;;4990423;28;20496;-64
2023/09/15 03:37:32;;;;;;;7.10;3.53;;;9.80;77.80;;;;;;4978743;28;20048;-65
2023/09/15 03:39:58;;;;;;;10.10;4.05;;;9.80;77.80;;;;;;4993468;28;20060;-64
2023/09/15 03:42:24;;;;;;;10.35;4.03;;;9.80;77.70;;;;;;4991973;28;20046;-65
2023/09/15 03:44:50;;;;;;;10.60;4.10;;;9.80;77.80;;;;;;4989690;28;20402;-65
2023/09/15 03:47:16;;;;;;;8.43;4.10;;;9.80;78.00;;;;;;4978247;28;20038;-65
2023/09/15 03:49:42;;;;;;;12.60;3.80;;;9.70;78.00;;;;;;4989198;28;20038;-64
2023/09/15 03:52:08;;;;;;;6.50;3.58;;;9.70;77.90;;;;;;4988945;28;20080;-65
2023/09/15 03:54:33;;;;;;;9.45;3.67;;;9.70;77.80;;;;;;4989568;28;20457;-64
2023/09/15 03:56:59;;;;;;;8.65;3.60;;;9.70;77.70;;;;;;4979331;28;20129;-64
2023/09/15 03:59:25;;;;;;;9.70;3.83;;;9.70;77.70;;;;;;4988051;28;20182;-64
2023/09/15 04:01:51;;;;;;;9.55;3.95;;;9.60;77.60;;;;;;4987356;28;20054;-65
2023/09/15 04:04:16;;;;;;;6.68;3.38;;;9.60;77.60;;;;;;4996572;28;20133;-65
2023/09/15 04:06:43;;;;;;;7.10;3.20;;;9.60;77.50;;;;;;4978108;28;20120;-63
2023/09/15 04:09:15;;;;;;;10.80;3.97;;;9.50;77.50;;;;;;4987645;28;20050;-65
2023/09/15 04:11:41;;;;;;;8.07;3.87;;;9.50;77.70;;;;;;4986354;28;20114;-65
2023/09/15 04:14:07;;;;;;;11.30;4.03;;;9.50;77.80;;;;;;4988077;28;20129;-65
2023/09/15 04:16:33;;;;;;;9.00;4.07;;;9.50;77.70;;;;;;4977046;28;20712;-64
2023/09/15 04:18:59;;;;;;;8.88;4.07;;;9.50;77.60;;;;;;4996689;28;20042;-65
2023/09/15 04:21:25;;;;;;;12.02;4.18;;;9.50;77.80;;;;;;4998360;28;20445;-65
2023/09/15 04:23:50;;;;;;;7.13;3.83;;;9.50;78.00;;;;;;4988591;28;20046;-64
2023/09/15 04:26:17;;;;;;;7.33;4.10;;;9.50;77.80;;;;;;4982273;28;20054;-65
2023/09/15 04:28:42;;;;;;;8.33;4.70;;;9.50;77.80;;;;;;4989101;28;20081;-65
2023/09/15 04:31:08;;;;;;;7.87;4.47;;;9.50;77.80;;;;;;4989709;28;20129;-65
2023/09/15 04:33:34;;;;;;;9.52;4.60;;;9.40;77.70;;;;;;4988879;28;20278;-65
2023/09/15 04:35:59;;;;;;;8.83;3.93;;;9.40;77.70;;;;;;4990533;28;20042;-65
2023/09/15 04:38:25;;;;;;;10.03;4.90;;;9.40;77.80;;;;;;4978982;28;20247;-65
2023/09/15 04:40:52;;;;;;;10.70;5.90;;;9.40;77.90;;;;;;4998711;28;20102;-65
2023/09/15 04:43:18;;;;;;;12.67;5.77;;;9.40;78.10;;;;;;5000918;28;20138;-66
2023/09/15 04:45:44;;;;;;;15.60;5.37;;;9.40;78.10;;;;;;4990004;28;20473;-65
2023/09/15 04:48:10;;;;;;;12.03;5.97;;;9.40;78.10;;;;;;4974283;28;20353;-64
2023/09/15 04:50:38;;;;;;;10.90;5.80;;;9.40;78.20;;;;;;4987395;28;20042;-66
2023/09/15 04:53:06;;;;;;;12.57;6.07;;;9.40;78.30;;;;;;4985266;28;20101;-66
2023/09/15 04:55:33;;;;;;;9.23;5.97;;;9.40;78.30;;;;;;4984898;28;20050;-66
2023/09/15 04:57:59;;;;;;;11.80;5.70;;;9.40;78.40;;;;;;4974144;28;20046;-66
2023/09/15 05:00:26;;;;;;;11.40;6.30;;;9.40;78.40;;;;;;4987498;28;20042;-67
2023/09/15 05:02:53;;;;;;;12.00;6.33;;;9.40;78.40;;;;;;4991794;28;20177;-63
2023/09/15 05:05:19;;;;;;;13.33;6.70;;;9.40;78.50;;;;;;4993075;28;20505;-66
2023/09/15 05:07:45;;;;;;;14.47;6.77;;;9.40;78.60;;;;;;4976270;28;20101;-67
2023/09/15 05:10:11;;;;;;;11.97;6.77;;;9.40;78.60;;;;;;4987182;28;20042;-65
2023/09/15 05:12:37;;;;;;;12.53;6.43;;;9.40;78.60;;;;;;4986405;28;20416;-65
2023/09/15 05:15:03;;;;;;;10.17;6.07;;;9.40;78.50;;;;;;4987702;28;20038;-64
2023/09/15 05:17:29;;;;;;;11.63;6.27;;;9.40;78.50;;;;;;4978412;28;20038;-64
2023/09/15 05:19:56;;;;;;;10.23;5.70;;;9.40;78.60;;;;;;4980805;28;20042;-66
2023/09/15 05:22:22;;;;;;;12.37;5.50;;;9.40;78.50;;;;;;4985967;28;20061;-66
2023/09/15 05:24:48;;;;;;;9.13;5.70;;;9.40;78.50;;;;;;4987449;28;20042;-66
2023/09/15 05:27:14;;;;;;;10.90;6.50;;;9.40;78.50;;;;;;4976493;28;20500;-65
2023/09/15 05:29:39;;;;;;;8.87;5.70;;;9.30;78.60;;;;;;4986837;28;20042;-66
2023/09/15 05:32:05;;;;;;;13.93;6.80;;;9.40;78.70;;;;;;4986996;28;20117;-65
2023/09/15 05:34:31;;;;;;;10.63;6.18;;;9.40;78.80;;;;;;4987219;28;20042;-67
2023/09/15 05:36:57;;;;;;;11.65;6.63;;;9.40;78.90;;;;;;4976594;28;20125;-66
2023/09/15 05:39:23;;;;;;;14.10;6.60;;;9.40;78.80;;;;;;4985519;28;20038;-65
2023/09/15 05:41:48;;;;;;;16.30;7.43;;;9.40;78.90;;;;;;4987586;28;20076;-66
2023/09/15 05:44:16;;;;;;;13.73;7.17;;;9.50;79.00;;;;;;4992741;28;20081;-65
2023/09/15 05:46:45;;;;;;;14.57;7.17;;;9.50;79.00;;;;;;4979087;28;20073;-65
2023/09/15 05:49:10;;;;;;;11.13;6.97;;;9.50;79.10;;;;;;4986329;28;20061;-66
2023/09/15 05:51:36;;;;;;;14.37;7.90;;;9.50;79.20;;;;;;4985935;28;20485;-65
2023/09/15 05:54:02;;;;;;;14.93;7.70;;;9.60;79.30;;;;;;4987501;28;20795;-66
2023/09/15 05:56:29;;;;;;;14.60;7.80;;;9.70;79.40;;;;;;4979111;28;20053;-64
2023/09/15 05:58:55;;;;;;;13.55;7.40;;;9.80;79.50;;;;;;4987724;28;20188;-66
2023/09/15 06:01:21;;;;;;;13.77;7.97;;;9.90;79.60;;;;;;4986861;28;20046;-66
2023/09/15 06:03:48;;;;;;;11.67;8.07;;;10.00;79.90;;;;;;4987399;28;20416;-66
2023/09/15 06:06:18;;;;;;;10.60;7.33;;;10.20;80.10;;;;;;4976600;28;20049;-66
2023/09/15 06:08:44;;;;;;;14.15;7.30;;;10.30;79.80;;;;;;4974669;28;20145;-66
2023/09/15 06:11:10;;;;;;;14.13;7.35;;;10.40;79.50;;;;;;4986381;28;20137;-66
2023/09/15 06:13:37;;;;;;;11.48;7.72;;;10.50;79.50;;;;;;4973040;28;20042;-65
2023/09/15 06:16:05;;;;;;;11.82;7.43;;;10.60;79.40;;;;;;4966106;28;20054;-62
2023/09/15 06:18:31;;;;;;;14.80;7.40;;;10.70;79.50;;;;;;4962400;28;20473;-65
2023/09/15 06:20:57;;;;;;;15.70;7.97;;;10.80;79.20;;;;;;4969776;28;20058;-65
2023/09/15 06:23:24;;;;;;;14.65;7.95;;;10.90;79.00;;;;;;4968439;28;20120;-65
2023/09/15 06:25:52;;;;;;;16.83;8.02;;;11.00;79.10;;;;;;4968796;28;20054;-64
2023/09/15 06:28:18;;;;;;;14.07;7.63;;;11.10;79.00;;;;;;4957739;28;20089;-67
2023/09/15 06:30:44;;;;;;;15.57;7.50;;;11.10;78.90;;;;;;4970970;28;20544;-65
2023/09/15 06:33:10;;;;;;;13.07;7.43;;;11.30;79.20;;;;;;4968208;28;20051;-65
2023/09/15 06:35:36;;;;;;;12.95;7.78;;;11.30;79.10;;;;;;4969301;28;20050;-65
2023/09/15 06:38:02;;;;;;;14.50;7.65;;;11.40;79.10;;;;;;4959207;28;20058;-65
2023/09/15 06:40:28;;;;;;;16.63;7.88;;;11.50;79.00;;;;;;4967651;28;20617;-66
2023/09/15 06:42:54;;;;;;;14.55;7.88;;;11.50;79.10;;;;;;4968746;28;20054;-64
2023/09/15 06:45:20;;;;;;;18.70;8.38;;;11.60;79.10;;;;;;4968483;28;20068;-67
2023/09/15 06:47:45;;;;;;;13.23;7.80;;;11.70;79.10;;;;;;4956136;28;20046;-65
2023/09/15 06:50:11;;;;;;;14.20;6.88;;;11.80;79.00;;;;;;4969685;28;20173;-66
2023/09/15 06:52:37;;;;;;;14.77;7.40;;;11.90;78.90;;;;;;4969236;28;20086;-67
2023/09/15 06:55:03;;;;;;;12.10;7.13;;;12.00;78.80;;;;;;4969178;28;20054;-67
2023/09/15 06:57:29;;;;;;;14.52;7.53;;;12.10;78.70;;;;;;4957180;28;20047;-65
2023/09/15 06:59:54;;;;;;;15.70;7.50;;;12.20;78.70;;;;;;4970348;28;20480;-65
2023/09/15 07:02:20;;;;;;;13.45;7.65;;;12.20;78.60;;;;;;4981371;28;20035;-67
2023/09/15 07:04:46;;;;;;;16.95;7.40;;;12.30;78.70;;;;;;4972291;28;20382;-66
2023/09/15 07:07:12;;;;;;;16.00;7.07;;;12.40;78.50;;;;;;4961364;28;20063;-65
2023/09/15 07:09:38;;;;;;;13.35;7.40;;;12.50;78.50;;;;;;4973412;28;20046;-66
2023/09/15 07:12:04;;;;;;;14.00;7.20;;;12.50;78.40;;;;;;4973236;28;20054;-67
2023/09/15 07:14:30;;;;;;;13.05;7.30;;;12.50;78.30;;;;;;4974248;28;20132;-67
2023/09/15 07:16:55;;;;;;;11.88;6.57;;;12.60;78.20;;;;;;4962752;28;20160;-66
2023/09/15 07:19:21;;;;;;;9.70;6.60;;;12.70;78.20;;;;;;4970968;28;20061;-65
2023/09/15 07:21:47;;;;;;;19.20;6.57;;;12.80;78.10;;;;;;4971049;28;20421;-64
2023/09/15 07:24:13;;;;;;;13.65;7.35;;;12.80;77.90;;;;;;4972911;28;20380;-66
2023/09/15 07:26:38;;;;;;;11.07;7.00;;;12.90;77.80;;;;;;4962559;28;20133;-66
2023/09/15 07:29:05;;;;;;;10.02;6.63;;;12.90;77.80;;;;;;4971642;28;20527;-63
2023/09/15 07:31:34;;;;;;;13.05;6.57;;;13.00;77.70;;;;;;4973088;28;20373;-66
2023/09/15 07:34:00;;;;;;;16.77;7.10;;;13.00;77.90;;;;;;4972475;28;20567;-68
2023/09/15 07:36:26;;;;;;;12.70;5.97;;;13.10;78.00;;;;;;4962838;28;21052;-66
2023/09/15 07:38:52;;;;;;;12.60;6.20;;;13.10;77.80;;;;;;4973594;28;20054;-67
2023/09/15 07:41:18;;;;;;;11.93;5.82;;;13.20;77.50;;;;;;4972757;28;20481;-68
2023/09/15 07:43:45;;;;;;;11.40;6.32;;;13.30;77.40;;;;;;4972468;28;20182;-65
2023/09/15 07:46:13;;;;;;;12.23;5.78;;;13.30;77.20;;;;;;4978382;28;20512;-65
2023/09/15 07:48:42;;;;;;;8.02;5.57;;;13.40;77.40;;;;;;4972810;28;20567;-64
2023/09/15 07:51:08;;;;;;;8.85;5.50;;;13.50;77.30;;;;;;4967596;28;20061;-62
2023/09/15 07:53:34;;;;;;;13.70;5.95;;;13.50;77.10;;;;;;4980352;28;20042;-66
2023/09/15 07:56:00;;;;;;;10.48;5.57;;;13.60;77.20;;;;;;4973317;28;20046;-63
2023/09/15 07:58:25;;;;;;;14.90;5.57;;;13.70;77.20;;;;;;4961144;28;20073;-66
2023/09/15 08:00:53;;;;;;;8.95;5.03;;;13.90;77.00;;;;;;4972897;28;20385;-67
2023/09/15 08:03:19;;;;;;;10.95;5.30;;;13.90;76.90;;;;;;4971349;28;20062;-65
2023/09/15 08:05:44;;;;;;;10.88;4.97;;;13.90;76.70;;;;;;4971994;28;20090;-67
2023/09/15 08:08:10;;;;;;;11.20;4.63;;;14.00;76.50;;;;;;4961173;28;20485;-67
2023/09/15 08:10:36;;;;;;;12.82;4.80;;;14.00;76.20;;;;;;4971975;28;20543;-68
2023/09/15 08:13:02;;;;;;;8.13;5.07;;;14.10;76.20;;;;;;4965651;28;20058;-64
2023/09/15 08:15:27;;;;;;;12.93;4.93;;;14.10;76.20;;;;;;4920681;28;20863;-65
2023/09/15 08:17:53;;;;;;;12.05;5.25;;;14.20;76.10;;;;;;4956979;28;21498;-66
2023/09/15 08:20:19;;;;;;;9.98;5.13;;;14.20;76.20;;;;;;4969275;28;20061;-68
2023/09/15 08:22:45;;;;;;;10.05;4.40;;;14.30;76.00;;;;;;4968149;28;20720;-65
2023/09/15 08:25:11;;;;;;;9.68;3.95;;;14.40;75.90;;;;;;4969893;28;20150;-63
2023/09/15 08:27:37;;;;;;;11.65;4.78;;;14.40;75.40;;;;;;4957542;28;20050;-63
2023/09/15 08:30:05;;;;;;;7.00;3.95;;;14.50;75.40;;;;;;4963316;28;20125;-62
2023/09/15 08:32:31;;;;;;;12.27;4.55;;;14.50;75.50;;;;;;4958257;28;20553;-64
2023/09/15 08:34:58;;;;;;;9.05;4.05;;;14.60;75.30;;;;;;4969281;28;20080;-64
2023/09/15 08:37:24;;;;;;;11.50;4.28;;;14.60;75.50;;;;;;4955223;28;20046;-64
2023/09/15 08:39:50;;;;;;;10.68;3.70;;;14.70;75.10;;;;;;4968721;28;20049;-64
2023/09/15 08:42:25;;;;;;;14.68;4.13;;;14.70;75.00;;;;;;4967328;28;20058;-63
2023/09/15 08:44:52;;;;;;;7.05;3.63;;;14.80;75.00;;;;;;4969256;28;20058;-65
2023/09/15 08:47:20;;;;;;;9.88;3.85;;;14.90;74.80;;;;;;4958023;28;20054;-62
2023/09/15 08:49:46;;;;;;;9.38;3.35;;;14.90;74.70;;;;;;4952535;28;20257;-62
2023/09/15 08:52:15;;;;;;;7.47;3.40;;;15.00;74.60;;;;;;4951495;28;20050;-64
2023/09/15 08:54:41;;;;;;;6.82;3.10;;;15.00;74.40;;;;;;4967602;28;20100;-64
2023/09/15 08:57:07;;;;;;;9.30;3.38;;;15.10;74.50;;;;;;4957579;28;20054;-62
2023/09/15 08:59:34;;;;;;;9.73;3.58;;;15.20;74.20;;;;;;4968346;28;20492;-66
2023/09/15 09:02:00;;;;;;;9.10;4.18;;;15.30;73.90;;;;;;4969344;28;20058;-64
2023/09/15 09:04:27;;;;;;;7.57;3.58;;;15.40;73.90;;;;;;4969553;28;20310;-66
2023/09/15 09:06:52;;;;;;;8.45;3.65;;;15.40;73.80;;;;;;4957724;28;20054;-64
2023/09/15 09:09:18;;;;;;;11.00;3.90;;;15.50;73.70;;;;;;4969633;28;20138;-65
2023/09/15 09:11:46;;;;;;;9.25;3.80;;;15.60;73.90;;;;;;4972762;28;20293;-63
2023/09/15 09:14:12;;;;;;;9.25;3.78;;;15.60;73.80;;;;;;4972307;28;20066;-64
2023/09/15 09:16:42;;;;;;;7.88;3.70;;;15.80;73.50;;;;;;4959628;28;20561;-66
2023/09/15 09:19:08;;;;;;;8.32;3.75;;;15.80;73.30;;;;;;4970115;28;20105;-62
2023/09/15 09:21:34;;;;;;;11.30;3.75;;;15.90;73.30;;;;;;4972627;28;20050;-65
2023/09/15 09:24:01;;;;;;;14.55;3.63;;;16.00;72.90;;;;;;4971361;28;20065;-65
2023/09/15 09:26:27;;;;;;;5.43;3.20;;;16.10;72.90;;;;;;4960091;28;21656;-64
2023/09/15 09:28:54;;;;;;;9.18;3.67;;;16.10;72.60;;;;;;4970309;28;20192;-65
2023/09/15 09:31:24;;;;;;;5.85;3.58;;;16.20;72.20;;;;;;4970819;28;20132;-65
2023/09/15 09:33:50;;;;;;;8.80;3.85;;;16.20;72.00;;;;;;4969870;28;20054;-64
2023/09/15 09:36:17;;;;;;;6.90;4.18;;;16.40;72.20;;;;;;4960779;28;20046;-65
2023/09/15 09:38:49;;;;;;;8.20;3.80;;;16.50;71.90;;;;;;4971600;28;20045;-64
2023/09/15 09:41:20;;;;;;;8.18;3.67;;;16.50;71.70;;;;;;4970141;28;20401;-65
2023/09/15 09:43:47;;;;;;;8.90;3.58;;;16.50;71.10;;;;;;4970057;28;20274;-65
2023/09/15 09:46:15;;;;;;;12.45;3.97;;;16.60;70.70;;;;;;4959307;28;20469;-65
2023/09/15 09:48:42;;;;;;;8.50;3.25;;;16.60;70.70;;;;;;4970299;28;21123;-63
2023/09/15 09:51:08;;;;;;;7.18;3.65;;;16.60;70.50;;;;;;4969134;28;20038;-63
2023/09/15 09:53:35;;;;;;;11.02;3.60;;;16.70;70.30;;;;;;4969636;28;20056;-64
2023/09/15 09:56:06;;;;;;;10.73;4.50;;;16.80;70.40;;;;;;4970559;28;20551;-65
2023/09/15 09:58:33;;;;;;;11.20;3.65;;;16.90;70.10;;;;;;4967440;28;20477;-66
2023/09/15 10:00:59;;;;;;;8.63;4.38;;;16.90;69.80;;;;;;4969955;28;20401;-64
2023/09/15 10:03:25;;;;;;;9.88;3.92;;;17.00;70.10;;;;;;4971306;28;20058;-67
2023/09/15 10:05:52;;;;;;;9.50;4.60;;;17.00;69.50;;;;;;4970448;28;20061;-64
2023/09/15 10:08:18;;;;;;;8.82;3.85;;;17.10;69.20;;;;;;4958180;28;20101;-64
2023/09/15 10:10:46;;;;;;;10.63;4.10;;;17.10;69.00;;;;;;4970029;28;20097;-67
2023/09/15 10:13:14;;;;;;;9.52;3.80;;;17.20;69.00;;;;;;4968671;28;20068;-64
2023/09/15 10:15:44;;;;;;;9.52;4.03;;;17.20;69.00;;;;;;4969624;28;20056;-64
2023/09/15 10:18:12;;;;;;;13.13;4.32;;;17.20;68.90;;;;;;4958812;28;20038;-64
2023/09/15 10:20:47;;;;;;;7.75;3.83;;;17.20;68.80;;;;;;4970758;28;20046;-66
2023/09/15 10:23:14;;;;;;;6.88;4.28;;;17.20;68.40;;;;;;4970208;28;20045;-65
2023/09/15 10:25:58;;;;;;;8.32;4.05;;;17.30;68.70;;;;;;4969854;28;20104;-65
2023/09/15 10:28:24;;;;;;;11.70;4.40;;;17.40;67.60;;;;;;4941265;28;20034;-64
2023/09/15 10:30:58;;;;;;;8.50;3.85;;;17.40;68.30;;;;;;4969661;28;20190;-62
2023/09/15 10:33:28;;;;;;;9.23;4.20;;;17.40;68.00;;;;;;4969495;28;20050;-62
2023/09/15 10:36:06;;;;;;;10.65;4.50;;;17.40;68.40;;;;;;4968747;28;20782;-63
2023/09/15 10:38:35;;;;;;;9.77;4.55;;;17.40;67.80;;;;;;4967181;28;20096;-65
2023/09/15 10:41:05;;;;;;;8.48;3.95;;;17.50;68.00;;;;;;4973641;28;20063;-64
2023/09/15 10:43:31;;;;;;;8.52;4.30;;;17.60;67.60;;;;;;4973133;28;20101;-64
2023/09/15 10:46:01;;;;;;;7.03;3.85;;;17.60;67.30;;;;;;4974965;28;20046;-65
2023/09/15 10:48:39;;;;;;;7.18;3.88;;;17.80;67.10;;;;;;4969153;28;20125;-63
2023/09/15 10:51:06;;;;;;;8.63;4.50;;;17.80;67.30;;;;;;4973648;28;20062;-63
2023/09/15 10:53:56;;;;;;;8.95;4.40;;;17.70;67.40;;;;;;4973626;28;20085;-65
2023/09/15 10:56:21;;;;;;;8.85;4.10;;;17.70;67.50;;;;;;4963331;28;20264;-65
2023/09/15 10:58:48;;;;;;;7.82;4.07;;;17.80;67.10;;;;;;4974245;28;20292;-65
2023/09/15 11:01:18;;;;;;;8.77;4.22;;;17.80;67.20;;;;;;4972579;28;20108;-64
2023/09/15 11:03:44;;;;;;;9.50;4.20;;;18.00;66.90;;;;;;4974345;28;20556;-65
2023/09/15 11:06:13;;;;;;;8.57;4.13;;;18.00;66.90;;;;;;4966124;28;20374;-65
2023/09/15 11:08:39;;;;;;;9.20;4.10;;;18.00;66.60;;;;;;4973547;28;20604;-65
2023/09/15 11:11:09;;;;;;;7.30;3.53;;;18.00;66.50;;;;;;4974822;28;20042;-65
2023/09/15 11:13:35;;;;;;;8.15;3.38;;;18.10;66.20;;;;;;4974058;28;20638;-63
2023/09/15 11:16:06;;;;;;;7.85;3.33;;;18.10;66.20;;;;;;4975062;28;20058;-63
2023/09/15 11:18:35;;;;;;;6.65;3.50;;;18.00;66.00;;;;;;4970001;28;20077;-62
2023/09/15 11:21:02;;;;;;;9.60;4.00;;;18.00;66.10;;;;;;4958645;28;20049;-63
2023/09/15 11:23:28;;;;;;;8.00;3.65;;;18.10;66.60;;;;;;4972303;28;20054;-63
2023/09/15 11:26:06;;;;;;;9.65;4.18;;;18.10;66.60;;;;;;4973782;28;20050;-65
2023/09/15 11:28:36;;;;;;;9.25;4.45;;;18.20;65.90;;;;;;4969688;28;20101;-65
2023/09/15 11:31:05;;;;;;;8.63;4.03;;;18.40;66.20;;;;;;4974354;28;20054;-64
2023/09/15 11:33:31;;;;;;;6.30;3.58;;;18.50;66.20;;;;;;4974621;28;20049;-64
2023/09/15 11:35:57;;;;;;;10.07;4.13;;;18.50;66.40;;;;;;4974652;28;20425;-63
2023/09/15 11:38:24;;;;;;;11.68;4.45;;;18.40;66.20;;;;;;4962362;28;20067;-64
2023/09/15 11:40:51;;;;;;;10.85;4.43;;;18.40;66.20;;;;;;4975170;28;20058;-63
2023/09/15 11:43:21;;;;;;;7.25;4.07;;;18.30;66.10;;;;;;4973218;28;20050;-64
2023/09/15 11:45:48;;;;;;;8.48;3.90;;;18.20;66.30;;;;;;4973255;28;20152;-63
2023/09/15 11:48:14;;;;;;;7.03;3.90;;;18.10;66.10;;;;;;4961097;28;20082;-64
2023/09/15 11:50:41;;;;;;;8.93;3.83;;;18.10;66.30;;;;;;4971707;28;20085;-62
2023/09/15 11:53:06;;;;;;;7.03;3.38;;;18.00;66.80;;;;;;4971077;28;20046;-63
2023/09/15 11:55:33;;;;;;;10.10;3.75;;;18.00;67.00;;;;;;4975669;28;21237;-64
2023/09/15 11:57:59;;;;;;;10.52;3.85;;;18.10;66.70;;;;;;4963200;28;20370;-64
2023/09/15 12:00:30;;;;;;;9.82;3.75;;;18.10;66.40;;;;;;4974326;28;20046;-63
2023/09/15 12:02:56;;;;;;;6.78;3.85;;;18.10;66.50;;;;;;4973756;28;20121;-63
2023/09/15 12:05:23;;;;;;;11.55;3.50;;;18.10;66.40;;;;;;4972777;28;20050;-63
2023/09/15 12:07:50;;;;;;;6.80;3.63;;;18.20;66.10;;;;;;4958889;28;20050;-64
2023/09/15 12:10:19;;;;;;;7.97;3.50;;;18.20;66.10;;;;;;4973106;28;20043;-65
2023/09/15 12:12:45;;;;;;;5.72;3.17;;;18.30;66.20;;;;;;4972290;28;21042;-64
2023/09/15 12:15:15;;;;;;;6.78;3.28;;;18.30;66.10;;;;;;4971051;28;20701;-63
2023/09/15 12:17:46;;;;;;;7.90;3.03;;;18.30;66.20;;;;;;4961707;28;20038;-64
2023/09/15 12:20:12;;;;;;;9.10;3.37;;;18.40;66.20;;;;;;4969875;28;20413;-65
2023/09/15 12:22:40;;;;;;;7.38;3.17;;;18.50;66.30;;;;;;4969678;28;20050;-63
2023/09/15 12:25:10;;;;;;;6.07;3.08;;;18.60;66.10;;;;;;4969425;28;20589;-63
2023/09/15 12:27:39;;;;;;;8.55;3.55;;;18.70;65.60;;;;;;4959031;28;20552;-63
2023/09/15 12:30:06;;;;;;;7.57;3.38;;;18.90;65.60;;;;;;4970164;28;20071;-62
2023/09/15 12:32:33;;;;;;;5.15;3.03;;;19.00;65.30;;;;;;4968188;28;20121;-64
2023/09/15 12:35:02;;;;;;;6.75;2.95;;;19.10;65.50;;;;;;4971287;28;20050;-64
2023/09/15 12:37:30;;;;;;;7.40;2.78;;;19.10;65.20;;;;;;4960335;28;20497;-64
2023/09/15 12:39:55;;;;;;;7.18;2.80;;;19.10;65.00;;;;;;4971178;28;21008;-64
2023/09/15 12:42:21;;;;;;;6.53;3.17;;;19.10;64.70;;;;;;4972435;28;20084;-64
2023/09/15 12:44:47;;;;;;;8.27;2.78;;;19.00;64.70;;;;;;4973347;28;20512;-65